sensor_id;sensor_type;location;lat;lon;timestamp;P1;durP1;ratioP1;P2;durP2;ratioP2
19675;SDS011;39539;52.202;9.876;2023-04-07T00:00:20;35.88;;;12.38;;
19675;SDS011;39539;52.202;9.876;2023-04-07T00:02:46;62.35;;;17.20;;
19675;SDS011;39539;52.202;9.876;2023-04-07T00:05:12;73.32;;;17.42;;
19675;SDS011;39539;52.202;9.876;2023-04-07T00:07:38;22.55;;;12.30;;
19675;SDS011;39539;52.202;9.876;2023-04-07T00:10:04;12.98;;;10.85;;
19675;SDS011;39539;52.202;9.876;2023-04-07T00:12:30;11.80;;;10.02;;
19675;SDS011;39539;52.202;9.876;2023-04-07T00:14:55;13.25;;;10.48;;
19675;SDS011;39539;52.202;9.876;2023-04-07T00:17:21;31.55;;;11.77;;
19675;SDS011;39539;52.202;9.876;2023-04-07T00:19:46;52.40;;;14.55;;
19675;SDS011;39539;52.202;9.876;2023-04-07T00:22:11;17.13;;;11.48;;
19675;SDS011;39539;52.202;9.876;2023-04-07T00:24:37;13.30;;;11.10;;
19675;SDS011;39539;52.202;9.876;2023-04-07T00:27:03;19.83;;;11.57;;
19675;SDS011;39539;52.202;9.876;2023-04-07T00:29:28;16.23;;;12.40;;
19675;SDS011;39539;52.202;9.876;2023-04-07T00:31:54;13.98;;;11.57;;
19675;SDS011;39539;52.202;9.876;2023-04-07T00:34:19;12.20;;;10.90;;
19675;SDS011;39539;52.202;9.876;2023-04-07T00:36:45;15.40;;;11.52;;
19675;SDS011;39539;52.202;9.876;2023-04-07T00:39:15;13.85;;;10.63;;
19675;SDS011;39539;52.202;9.876;2023-04-07T00:41:41;14.82;;;11.43;;
19675;SDS011;39539;52.202;9.876;2023-04-07T00:44:06;48.50;;;12.70;;
19675;SDS011;39539;52.202;9.876;2023-04-07T00:46:32;13.50;;;10.00;;
19675;SDS011;39539;52.202;9.876;2023-04-07T00:48:57;14.25;;;10.77;;
19675;SDS011;39539;52.202;9.876;2023-04-07T00:51:23;13.35;;;12.05;;
19675;SDS011;39539;52.202;9.876;2023-04-07T00:53:48;13.15;;;11.85;;
19675;SDS011;39539;52.202;9.876;2023-04-07T00:56:13;14.48;;;11.43;;
19675;SDS011;39539;52.202;9.876;2023-04-07T00:58:39;30.38;;;12.02;;
19675;SDS011;39539;52.202;9.876;2023-04-07T01:01:08;30.42;;;11.27;;
19675;SDS011;39539;52.202;9.876;2023-04-07T01:03:44;22.48;;;10.38;;
19675;SDS011;39539;52.202;9.876;2023-04-07T01:06:13;21.52;;;10.57;;
19675;SDS011;39539;52.202;9.876;2023-04-07T01:09:17;24.10;;;11.32;;
19675;SDS011;39539;52.202;9.876;2023-04-07T01:11:58;27.33;;;12.65;;
19675;SDS011;39539;52.202;9.876;2023-04-07T01:14:33;14.68;;;11.35;;
19675;SDS011;39539;52.202;9.876;2023-04-07T01:17:05;11.55;;;10.45;;
19675;SDS011;39539;52.202;9.876;2023-04-07T01:22:26;12.73;;;10.27;;
19675;SDS011;39539;52.202;9.876;2023-04-07T01:30:43;11.27;;;10.07;;
19675;SDS011;39539;52.202;9.876;2023-04-07T01:33:10;11.07;;;10.02;;
19675;SDS011;39539;52.202;9.876;2023-04-07T01:35:36;15.98;;;11.02;;
19675;SDS011;39539;52.202;9.876;2023-04-07T01:38:03;15.27;;;11.00;;
19675;SDS011;39539;52.202;9.876;2023-04-07T01:40:29;10.70;;;9.57;;
19675;SDS011;39539;52.202;9.876;2023-04-07T01:42:57;12.15;;;11.00;;
19675;SDS011;39539;52.202;9.876;2023-04-07T01:45:24;24.75;;;12.07;;
19675;SDS011;39539;52.202;9.876;2023-04-07T01:47:51;45.35;;;12.93;;
19675;SDS011;39539;52.202;9.876;2023-04-07T01:50:17;28.38;;;11.65;;
19675;SDS011;39539;52.202;9.876;2023-04-07T01:52:45;54.85;;;15.82;;
19675;SDS011;39539;52.202;9.876;2023-04-07T01:55:11;33.58;;;12.70;;
19675;SDS011;39539;52.202;9.876;2023-04-07T01:57:36;21.00;;;11.73;;
19675;SDS011;39539;52.202;9.876;2023-04-07T02:00:02;63.33;;;16.42;;
19675;SDS011;39539;52.202;9.876;2023-04-07T02:02:28;16.17;;;11.38;;
19675;SDS011;39539;52.202;9.876;2023-04-07T02:04:57;23.02;;;12.63;;
19675;SDS011;39539;52.202;9.876;2023-04-07T02:10:08;49.35;;;14.23;;
19675;SDS011;39539;52.202;9.876;2023-04-07T02:12:36;50.72;;;15.10;;
19675;SDS011;39539;52.202;9.876;2023-04-07T02:15:03;42.22;;;12.98;;
19675;SDS011;39539;52.202;9.876;2023-04-07T02:17:30;17.27;;;11.45;;
19675;SDS011;39539;52.202;9.876;2023-04-07T02:19:58;18.67;;;11.63;;
19675;SDS011;39539;52.202;9.876;2023-04-07T02:22:26;24.20;;;13.35;;
19675;SDS011;39539;52.202;9.876;2023-04-07T02:24:52;14.57;;;12.00;;
19675;SDS011;39539;52.202;9.876;2023-04-07T02:27:20;14.15;;;12.57;;
19675;SDS011;39539;52.202;9.876;2023-04-07T02:29:45;13.57;;;11.93;;
19675;SDS011;39539;52.202;9.876;2023-04-07T02:32:11;13.23;;;11.57;;
19675;SDS011;39539;52.202;9.876;2023-04-07T02:34:36;15.13;;;10.88;;
19675;SDS011;39539;52.202;9.876;2023-04-07T02:37:01;11.35;;;10.18;;
19675;SDS011;39539;52.202;9.876;2023-04-07T02:39:27;11.85;;;10.55;;
19675;SDS011;39539;52.202;9.876;2023-04-07T02:41:52;14.80;;;10.23;;
19675;SDS011;39539;52.202;9.876;2023-04-07T02:44:17;13.73;;;10.90;;
19675;SDS011;39539;52.202;9.876;2023-04-07T02:46:43;12.85;;;11.55;;
19675;SDS011;39539;52.202;9.876;2023-04-07T02:49:08;11.38;;;10.27;;
19675;SDS011;39539;52.202;9.876;2023-04-07T02:51:34;14.15;;;11.05;;
19675;SDS011;39539;52.202;9.876;2023-04-07T02:53:59;14.32;;;10.68;;
19675;SDS011;39539;52.202;9.876;2023-04-07T02:56:24;12.50;;;11.30;;
19675;SDS011;39539;52.202;9.876;2023-04-07T02:58:50;11.45;;;10.25;;
19675;SDS011;39539;52.202;9.876;2023-04-07T03:01:15;12.38;;;11.07;;
19675;SDS011;39539;52.202;9.876;2023-04-07T03:03:40;11.65;;;9.93;;
19675;SDS011;39539;52.202;9.876;2023-04-07T03:06:08;10.90;;;9.80;;
19675;SDS011;39539;52.202;9.876;2023-04-07T03:08:34;11.38;;;10.18;;
19675;SDS011;39539;52.202;9.876;2023-04-07T03:10:59;13.90;;;11.30;;
19675;SDS011;39539;52.202;9.876;2023-04-07T03:13:25;10.50;;;9.48;;
19675;SDS011;39539;52.202;9.876;2023-04-07T03:15:50;14.00;;;10.30;;
19675;SDS011;39539;52.202;9.876;2023-04-07T03:18:15;10.93;;;9.82;;
19675;SDS011;39539;52.202;9.876;2023-04-07T03:20:41;12.13;;;10.93;;
19675;SDS011;39539;52.202;9.876;2023-04-07T03:23:07;11.98;;;10.80;;
19675;SDS011;39539;52.202;9.876;2023-04-07T03:25:32;12.00;;;8.80;;
19675;SDS011;39539;52.202;9.876;2023-04-07T03:27:58;12.93;;;11.57;;
19675;SDS011;39539;52.202;9.876;2023-04-07T03:30:23;11.95;;;10.73;;
19675;SDS011;39539;52.202;9.876;2023-04-07T03:32:49;13.65;;;12.05;;
19675;SDS011;39539;52.202;9.876;2023-04-07T03:35:15;12.80;;;11.50;;
19675;SDS011;39539;52.202;9.876;2023-04-07T03:37:40;13.20;;;11.90;;
19675;SDS011;39539;52.202;9.876;2023-04-07T03:40:05;12.43;;;10.95;;
19675;SDS011;39539;52.202;9.876;2023-04-07T03:42:31;14.10;;;11.82;;
19675;SDS011;39539;52.202;9.876;2023-04-07T03:44:58;12.77;;;11.48;;
19675;SDS011;39539;52.202;9.876;2023-04-07T03:47:23;13.05;;;11.30;;
19675;SDS011;39539;52.202;9.876;2023-04-07T03:49:49;11.68;;;10.55;;
19675;SDS011;39539;52.202;9.876;2023-04-07T03:52:14;12.10;;;10.88;;
19675;SDS011;39539;52.202;9.876;2023-04-07T03:54:39;11.93;;;10.70;;
19675;SDS011;39539;52.202;9.876;2023-04-07T03:57:05;11.88;;;10.75;;
19675;SDS011;39539;52.202;9.876;2023-04-07T03:59:31;13.23;;;10.98;;
19675;SDS011;39539;52.202;9.876;2023-04-07T04:01:56;11.82;;;10.60;;
19675;SDS011;39539;52.202;9.876;2023-04-07T04:04:22;12.55;;;11.30;;
19675;SDS011;39539;52.202;9.876;2023-04-07T04:06:48;11.77;;;10.63;;
19675;SDS011;39539;52.202;9.876;2023-04-07T04:09:14;13.88;;;12.50;;
19675;SDS011;39539;52.202;9.876;2023-04-07T04:11:40;13.50;;;11.93;;
19675;SDS011;39539;52.202;9.876;2023-04-07T04:14:06;13.90;;;12.50;;
19675;SDS011;39539;52.202;9.876;2023-04-07T04:16:31;13.20;;;11.93;;
19675;SDS011;39539;52.202;9.876;2023-04-07T04:18:56;12.85;;;11.55;;
19675;SDS011;39539;52.202;9.876;2023-04-07T04:21:22;15.90;;;11.35;;
19675;SDS011;39539;52.202;9.876;2023-04-07T04:23:47;15.65;;;12.73;;
19675;SDS011;39539;52.202;9.876;2023-04-07T04:26:12;14.10;;;12.63;;
19675;SDS011;39539;52.202;9.876;2023-04-07T04:28:37;14.68;;;13.27;;
19675;SDS011;39539;52.202;9.876;2023-04-07T04:31:03;15.07;;;13.57;;
19675;SDS011;39539;52.202;9.876;2023-04-07T04:33:28;13.55;;;12.13;;
19675;SDS011;39539;52.202;9.876;2023-04-07T04:35:54;15.15;;;13.55;;
19675;SDS011;39539;52.202;9.876;2023-04-07T04:38:20;19.38;;;12.10;;
19675;SDS011;39539;52.202;9.876;2023-04-07T04:40:45;15.32;;;13.65;;
19675;SDS011;39539;52.202;9.876;2023-04-07T04:43:10;13.95;;;12.25;;
19675;SDS011;39539;52.202;9.876;2023-04-07T04:45:36;13.70;;;12.40;;
19675;SDS011;39539;52.202;9.876;2023-04-07T04:48:01;14.60;;;12.93;;
19675;SDS011;39539;52.202;9.876;2023-04-07T04:50:26;16.00;;;13.13;;
19675;SDS011;39539;52.202;9.876;2023-04-07T04:52:52;15.52;;;14.00;;
19675;SDS011;39539;52.202;9.876;2023-04-07T04:55:17;16.27;;;14.55;;
19675;SDS011;39539;52.202;9.876;2023-04-07T04:57:43;15.45;;;13.95;;
19675;SDS011;39539;52.202;9.876;2023-04-07T05:00:08;15.98;;;14.30;;
19675;SDS011;39539;52.202;9.876;2023-04-07T05:02:34;14.10;;;12.73;;
19675;SDS011;39539;52.202;9.876;2023-04-07T05:05:00;14.90;;;13.38;;
19675;SDS011;39539;52.202;9.876;2023-04-07T05:07:25;15.05;;;13.48;;
19675;SDS011;39539;52.202;9.876;2023-04-07T05:09:51;16.30;;;14.65;;
19675;SDS011;39539;52.202;9.876;2023-04-07T05:12:16;16.17;;;13.18;;
19675;SDS011;39539;52.202;9.876;2023-04-07T05:14:41;15.55;;;13.95;;
19675;SDS011;39539;52.202;9.876;2023-04-07T05:17:07;14.07;;;12.60;;
19675;SDS011;39539;52.202;9.876;2023-04-07T05:19:32;14.75;;;13.25;;
19675;SDS011;39539;52.202;9.876;2023-04-07T05:21:58;14.95;;;13.02;;
19675;SDS011;39539;52.202;9.876;2023-04-07T05:24:27;17.10;;;14.48;;
19675;SDS011;39539;52.202;9.876;2023-04-07T05:26:53;15.65;;;14.05;;
19675;SDS011;39539;52.202;9.876;2023-04-07T05:29:18;15.68;;;13.77;;
19675;SDS011;39539;52.202;9.876;2023-04-07T05:31:44;14.55;;;13.15;;
19675;SDS011;39539;52.202;9.876;2023-04-07T05:34:09;15.07;;;13.55;;
19675;SDS011;39539;52.202;9.876;2023-04-07T05:36:35;14.77;;;13.27;;
19675;SDS011;39539;52.202;9.876;2023-04-07T05:39:00;15.35;;;13.95;;
19675;SDS011;39539;52.202;9.876;2023-04-07T05:41:26;16.13;;;13.80;;
19675;SDS011;39539;52.202;9.876;2023-04-07T05:43:51;15.88;;;13.40;;
19675;SDS011;39539;52.202;9.876;2023-04-07T05:46:17;15.50;;;13.90;;
19675;SDS011;39539;52.202;9.876;2023-04-07T05:48:42;15.70;;;14.20;;
19675;SDS011;39539;52.202;9.876;2023-04-07T05:51:07;13.15;;;11.85;;
19675;SDS011;39539;52.202;9.876;2023-04-07T05:53:33;15.32;;;13.80;;
19675;SDS011;39539;52.202;9.876;2023-04-07T05:55:58;15.82;;;13.85;;
19675;SDS011;39539;52.202;9.876;2023-04-07T05:58:23;17.13;;;13.88;;
19675;SDS011;39539;52.202;9.876;2023-04-07T06:00:49;16.17;;;13.73;;
19675;SDS011;39539;52.202;9.876;2023-04-07T06:03:14;14.88;;;13.50;;
19675;SDS011;39539;52.202;9.876;2023-04-07T06:05:40;18.15;;;13.93;;
19675;SDS011;39539;52.202;9.876;2023-04-07T06:08:07;15.68;;;14.27;;
19675;SDS011;39539;52.202;9.876;2023-04-07T06:10:33;15.10;;;13.77;;
19675;SDS011;39539;52.202;9.876;2023-04-07T06:12:59;15.75;;;14.35;;
19675;SDS011;39539;52.202;9.876;2023-04-07T06:15:25;15.13;;;13.82;;
19675;SDS011;39539;52.202;9.876;2023-04-07T06:17:50;14.95;;;13.63;;
19675;SDS011;39539;52.202;9.876;2023-04-07T06:20:15;15.75;;;14.55;;
19675;SDS011;39539;52.202;9.876;2023-04-07T06:22:41;15.80;;;14.60;;
19675;SDS011;39539;52.202;9.876;2023-04-07T06:25:06;15.43;;;14.32;;
19675;SDS011;39539;52.202;9.876;2023-04-07T06:27:32;14.95;;;13.85;;
19675;SDS011;39539;52.202;9.876;2023-04-07T06:29:57;15.63;;;14.40;;
19675;SDS011;39539;52.202;9.876;2023-04-07T06:32:23;15.70;;;14.60;;
19675;SDS011;39539;52.202;9.876;2023-04-07T06:34:49;15.60;;;14.50;;
19675;SDS011;39539;52.202;9.876;2023-04-07T06:37:14;16.08;;;14.98;;
19675;SDS011;39539;52.202;9.876;2023-04-07T06:39:40;14.88;;;13.68;;
19675;SDS011;39539;52.202;9.876;2023-04-07T06:42:06;14.65;;;13.65;;
19675;SDS011;39539;52.202;9.876;2023-04-07T06:44:31;15.93;;;14.82;;
19675;SDS011;39539;52.202;9.876;2023-04-07T06:46:57;16.33;;;15.20;;
19675;SDS011;39539;52.202;9.876;2023-04-07T06:49:22;16.75;;;15.50;;
19675;SDS011;39539;52.202;9.876;2023-04-07T06:51:47;16.48;;;15.27;;
19675;SDS011;39539;52.202;9.876;2023-04-07T06:54:13;16.55;;;15.35;;
19675;SDS011;39539;52.202;9.876;2023-04-07T06:56:39;16.15;;;15.05;;
19675;SDS011;39539;52.202;9.876;2023-04-07T06:59:06;15.82;;;14.63;;
19675;SDS011;39539;52.202;9.876;2023-04-07T07:01:31;15.63;;;14.45;;
19675;SDS011;39539;52.202;9.876;2023-04-07T07:03:57;15.18;;;14.07;;
19675;SDS011;39539;52.202;9.876;2023-04-07T07:06:24;15.07;;;14.07;;
19675;SDS011;39539;52.202;9.876;2023-04-07T07:08:50;15.48;;;14.48;;
19675;SDS011;39539;52.202;9.876;2023-04-07T07:11:16;15.90;;;14.73;;
19675;SDS011;39539;52.202;9.876;2023-04-07T07:13:41;14.35;;;13.15;;
19675;SDS011;39539;52.202;9.876;2023-04-07T07:16:07;14.85;;;13.75;;
19675;SDS011;39539;52.202;9.876;2023-04-07T07:18:32;15.13;;;14.07;;
19675;SDS011;39539;52.202;9.876;2023-04-07T07:20:57;15.30;;;14.10;;
19675;SDS011;39539;52.202;9.876;2023-04-07T07:23:23;17.60;;;16.00;;
19675;SDS011;39539;52.202;9.876;2023-04-07T07:25:48;16.77;;;15.50;;
19675;SDS011;39539;52.202;9.876;2023-04-07T07:28:13;15.57;;;14.45;;
19675;SDS011;39539;52.202;9.876;2023-04-07T07:30:39;17.52;;;16.10;;
19675;SDS011;39539;52.202;9.876;2023-04-07T07:33:05;17.25;;;15.85;;
19675;SDS011;39539;52.202;9.876;2023-04-07T07:35:31;16.30;;;15.20;;
19675;SDS011;39539;52.202;9.876;2023-04-07T07:37:56;16.73;;;15.32;;
19675;SDS011;39539;52.202;9.876;2023-04-07T07:40:22;17.25;;;15.85;;
19675;SDS011;39539;52.202;9.876;2023-04-07T07:42:48;15.77;;;14.60;;
19675;SDS011;39539;52.202;9.876;2023-04-07T07:45:13;16.15;;;14.98;;
19675;SDS011;39539;52.202;9.876;2023-04-07T07:47:39;15.05;;;14.05;;
19675;SDS011;39539;52.202;9.876;2023-04-07T07:50:05;15.05;;;13.93;;
19675;SDS011;39539;52.202;9.876;2023-04-07T07:52:30;14.38;;;13.30;;
19675;SDS011;39539;52.202;9.876;2023-04-07T07:54:56;14.35;;;13.25;;
19675;SDS011;39539;52.202;9.876;2023-04-07T07:57:21;14.55;;;13.35;;
19675;SDS011;39539;52.202;9.876;2023-04-07T07:59:46;14.48;;;13.38;;
19675;SDS011;39539;52.202;9.876;2023-04-07T08:02:12;14.48;;;13.38;;
19675;SDS011;39539;52.202;9.876;2023-04-07T08:04:37;13.95;;;12.88;;
19675;SDS011;39539;52.202;9.876;2023-04-07T08:07:03;13.77;;;12.73;;
19675;SDS011;39539;52.202;9.876;2023-04-07T08:09:28;13.35;;;12.35;;
19675;SDS011;39539;52.202;9.876;2023-04-07T08:11:54;13.57;;;12.68;;
19675;SDS011;39539;52.202;9.876;2023-04-07T08:14:20;13.50;;;12.50;;
19675;SDS011;39539;52.202;9.876;2023-04-07T08:16:45;13.55;;;12.55;;
19675;SDS011;39539;52.202;9.876;2023-04-07T08:19:11;12.52;;;11.55;;
19675;SDS011;39539;52.202;9.876;2023-04-07T08:21:37;13.23;;;12.18;;
19675;SDS011;39539;52.202;9.876;2023-04-07T08:24:03;12.82;;;11.82;;
19675;SDS011;39539;52.202;9.876;2023-04-07T08:26:28;13.65;;;12.55;;
19675;SDS011;39539;52.202;9.876;2023-04-07T08:28:53;13.02;;;11.93;;
19675;SDS011;39539;52.202;9.876;2023-04-07T08:31:20;13.27;;;12.38;;
19675;SDS011;39539;52.202;9.876;2023-04-07T08:33:45;13.80;;;12.60;;
19675;SDS011;39539;52.202;9.876;2023-04-07T08:36:11;13.73;;;12.63;;
19675;SDS011;39539;52.202;9.876;2023-04-07T08:38:36;13.77;;;12.77;;
19675;SDS011;39539;52.202;9.876;2023-04-07T08:41:03;13.55;;;12.45;;
19675;SDS011;39539;52.202;9.876;2023-04-07T08:43:34;13.65;;;12.55;;
19675;SDS011;39539;52.202;9.876;2023-04-07T08:46:03;13.50;;;12.30;;
19675;SDS011;39539;52.202;9.876;2023-04-07T08:48:29;13.40;;;12.40;;
19675;SDS011;39539;52.202;9.876;2023-04-07T08:51:03;13.60;;;12.48;;
19675;SDS011;39539;52.202;9.876;2023-04-07T08:53:51;14.32;;;13.13;;
19675;SDS011;39539;52.202;9.876;2023-04-07T08:56:17;13.07;;;12.07;;
19675;SDS011;39539;52.202;9.876;2023-04-07T08:58:46;12.40;;;11.40;;
19675;SDS011;39539;52.202;9.876;2023-04-07T09:01:12;13.13;;;12.13;;
19675;SDS011;39539;52.202;9.876;2023-04-07T09:03:40;12.38;;;11.38;;
19675;SDS011;39539;52.202;9.876;2023-04-07T09:06:06;11.95;;;11.00;;
19675;SDS011;39539;52.202;9.876;2023-04-07T09:08:34;12.38;;;11.18;;
19675;SDS011;39539;52.202;9.876;2023-04-07T09:11:00;11.30;;;10.50;;
19675;SDS011;39539;52.202;9.876;2023-04-07T09:13:26;11.18;;;10.27;;
19675;SDS011;39539;52.202;9.876;2023-04-07T09:15:52;10.70;;;9.73;;
19675;SDS011;39539;52.202;9.876;2023-04-07T09:18:17;10.52;;;9.63;;
19675;SDS011;39539;52.202;9.876;2023-04-07T09:20:59;9.65;;;8.93;;
19675;SDS011;39539;52.202;9.876;2023-04-07T09:23:27;10.27;;;9.40;;
19675;SDS011;39539;52.202;9.876;2023-04-07T09:25:54;8.85;;;8.13;;
19675;SDS011;39539;52.202;9.876;2023-04-07T09:28:19;9.25;;;8.50;;
19675;SDS011;39539;52.202;9.876;2023-04-07T09:30:52;9.25;;;8.55;;
19675;SDS011;39539;52.202;9.876;2023-04-07T09:33:25;9.35;;;8.55;;
19675;SDS011;39539;52.202;9.876;2023-04-07T09:35:51;9.10;;;8.40;;
19675;SDS011;39539;52.202;9.876;2023-04-07T09:38:17;9.65;;;8.85;;
19675;SDS011;39539;52.202;9.876;2023-04-07T09:40:43;9.95;;;9.15;;
19675;SDS011;39539;52.202;9.876;2023-04-07T09:43:13;17.13;;;9.00;;
19675;SDS011;39539;52.202;9.876;2023-04-07T09:45:40;9.15;;;8.35;;
19675;SDS011;39539;52.202;9.876;2023-04-07T09:48:27;9.38;;;8.57;;
19675;SDS011;39539;52.202;9.876;2023-04-07T09:50:52;12.60;;;8.25;;
19675;SDS011;39539;52.202;9.876;2023-04-07T09:53:40;9.07;;;8.38;;
19675;SDS011;39539;52.202;9.876;2023-04-07T09:56:08;8.70;;;7.90;;
19675;SDS011;39539;52.202;9.876;2023-04-07T09:58:36;8.88;;;8.20;;
19675;SDS011;39539;52.202;9.876;2023-04-07T10:01:04;9.52;;;8.60;;
19675;SDS011;39539;52.202;9.876;2023-04-07T10:03:32;8.70;;;8.00;;
19675;SDS011;39539;52.202;9.876;2023-04-07T10:06:00;9.32;;;8.52;;
19675;SDS011;39539;52.202;9.876;2023-04-07T10:08:26;9.40;;;8.70;;
19675;SDS011;39539;52.202;9.876;2023-04-07T10:10:52;9.88;;;9.05;;
19675;SDS011;39539;52.202;9.876;2023-04-07T10:13:19;9.05;;;8.35;;
19675;SDS011;39539;52.202;9.876;2023-04-07T10:15:46;9.57;;;8.75;;
19675;SDS011;39539;52.202;9.876;2023-04-07T10:18:12;9.27;;;8.50;;
19675;SDS011;39539;52.202;9.876;2023-04-07T10:20:39;9.27;;;8.57;;
19675;SDS011;39539;52.202;9.876;2023-04-07T10:23:12;9.98;;;9.18;;
19675;SDS011;39539;52.202;9.876;2023-04-07T10:25:43;9.85;;;9.07;;
19675;SDS011;39539;52.202;9.876;2023-04-07T10:28:10;9.50;;;8.80;;
19675;SDS011;39539;52.202;9.876;2023-04-07T10:30:37;9.90;;;9.10;;
19675;SDS011;39539;52.202;9.876;2023-04-07T10:33:03;10.05;;;9.25;;
19675;SDS011;39539;52.202;9.876;2023-04-07T10:35:29;9.93;;;9.13;;
19675;SDS011;39539;52.202;9.876;2023-04-07T10:38:32;9.60;;;8.80;;
19675;SDS011;39539;52.202;9.876;2023-04-07T10:40:57;10.23;;;9.27;;
19675;SDS011;39539;52.202;9.876;2023-04-07T10:46:17;9.75;;;8.95;;
19675;SDS011;39539;52.202;9.876;2023-04-07T10:48:42;10.75;;;9.65;;
19675;SDS011;39539;52.202;9.876;2023-04-07T10:51:34;10.55;;;9.65;;
19675;SDS011;39539;52.202;9.876;2023-04-07T10:57:04;9.93;;;9.13;;
19675;SDS011;39539;52.202;9.876;2023-04-07T10:59:32;9.63;;;8.82;;
19675;SDS011;39539;52.202;9.876;2023-04-07T11:04:39;10.30;;;9.35;;
19675;SDS011;39539;52.202;9.876;2023-04-07T11:07:06;10.80;;;9.70;;
19675;SDS011;39539;52.202;9.876;2023-04-07T11:09:32;10.98;;;10.07;;
19675;SDS011;39539;52.202;9.876;2023-04-07T11:11:58;10.93;;;9.85;;
19675;SDS011;39539;52.202;9.876;2023-04-07T11:14:30;10.23;;;9.43;;
19675;SDS011;39539;52.202;9.876;2023-04-07T11:16:57;10.07;;;9.23;;
19675;SDS011;39539;52.202;9.876;2023-04-07T11:19:23;10.23;;;9.43;;
19675;SDS011;39539;52.202;9.876;2023-04-07T11:21:49;10.70;;;9.70;;
19675;SDS011;39539;52.202;9.876;2023-04-07T11:26:59;10.95;;;9.85;;
19675;SDS011;39539;52.202;9.876;2023-04-07T11:29:28;10.70;;;9.80;;
19675;SDS011;39539;52.202;9.876;2023-04-07T11:31:56;10.70;;;9.77;;
19675;SDS011;39539;52.202;9.876;2023-04-07T11:34:28;10.55;;;9.68;;
19675;SDS011;39539;52.202;9.876;2023-04-07T11:36:55;10.32;;;9.45;;
19675;SDS011;39539;52.202;9.876;2023-04-07T11:39:24;10.80;;;9.83;;
19675;SDS011;39539;52.202;9.876;2023-04-07T11:41:55;10.68;;;9.52;;
19675;SDS011;39539;52.202;9.876;2023-04-07T11:44:21;10.73;;;9.82;;
19675;SDS011;39539;52.202;9.876;2023-04-07T11:46:56;10.65;;;9.65;;
19675;SDS011;39539;52.202;9.876;2023-04-07T11:49:23;10.52;;;9.73;;
19675;SDS011;39539;52.202;9.876;2023-04-07T11:51:56;10.93;;;10.02;;
19675;SDS011;39539;52.202;9.876;2023-04-07T11:57:12;10.90;;;10.00;;
19675;SDS011;39539;52.202;9.876;2023-04-07T11:59:38;10.70;;;9.85;;
19675;SDS011;39539;52.202;9.876;2023-04-07T12:02:04;10.80;;;10.00;;
19675;SDS011;39539;52.202;9.876;2023-04-07T12:04:30;11.05;;;10.15;;
19675;SDS011;39539;52.202;9.876;2023-04-07T12:07:05;11.30;;;10.40;;
19675;SDS011;39539;52.202;9.876;2023-04-07T12:09:32;11.05;;;10.20;;
19675;SDS011;39539;52.202;9.876;2023-04-07T12:12:02;11.38;;;10.48;;
19675;SDS011;39539;52.202;9.876;2023-04-07T12:14:30;11.57;;;10.52;;
19675;SDS011;39539;52.202;9.876;2023-04-07T12:16:56;11.32;;;10.27;;
19675;SDS011;39539;52.202;9.876;2023-04-07T12:19:25;11.43;;;10.48;;
19675;SDS011;39539;52.202;9.876;2023-04-07T12:21:54;11.05;;;10.13;;
19675;SDS011;39539;52.202;9.876;2023-04-07T12:24:20;11.18;;;10.27;;
19675;SDS011;39539;52.202;9.876;2023-04-07T12:26:46;12.65;;;11.57;;
19675;SDS011;39539;52.202;9.876;2023-04-07T12:29:12;11.82;;;10.90;;
19675;SDS011;39539;52.202;9.876;2023-04-07T12:31:37;11.98;;;10.88;;
19675;SDS011;39539;52.202;9.876;2023-04-07T12:34:03;11.90;;;10.68;;
19675;SDS011;39539;52.202;9.876;2023-04-07T12:36:28;11.68;;;10.68;;
19675;SDS011;39539;52.202;9.876;2023-04-07T12:38:56;11.90;;;10.85;;
19675;SDS011;39539;52.202;9.876;2023-04-07T12:41:21;12.52;;;11.20;;
19675;SDS011;39539;52.202;9.876;2023-04-07T12:43:47;12.52;;;10.63;;
19675;SDS011;39539;52.202;9.876;2023-04-07T12:46:13;12.15;;;11.25;;
19675;SDS011;39539;52.202;9.876;2023-04-07T12:48:38;12.05;;;11.13;;
19675;SDS011;39539;52.202;9.876;2023-04-07T12:51:04;11.90;;;10.90;;
19675;SDS011;39539;52.202;9.876;2023-04-07T12:53:29;12.32;;;11.07;;
19675;SDS011;39539;52.202;9.876;2023-04-07T12:55:55;11.18;;;10.30;;
19675;SDS011;39539;52.202;9.876;2023-04-07T12:58:21;11.95;;;10.95;;
19675;SDS011;39539;52.202;9.876;2023-04-07T13:00:46;11.52;;;10.63;;
19675;SDS011;39539;52.202;9.876;2023-04-07T13:03:12;12.25;;;11.25;;
19675;SDS011;39539;52.202;9.876;2023-04-07T13:05:38;11.98;;;10.90;;
19675;SDS011;39539;52.202;9.876;2023-04-07T13:08:03;12.40;;;11.30;;
19675;SDS011;39539;52.202;9.876;2023-04-07T13:10:29;11.55;;;10.65;;
19675;SDS011;39539;52.202;9.876;2023-04-07T13:12:54;11.43;;;10.52;;
19675;SDS011;39539;52.202;9.876;2023-04-07T13:15:20;11.77;;;10.77;;
19675;SDS011;39539;52.202;9.876;2023-04-07T13:17:45;11.45;;;10.45;;
19675;SDS011;39539;52.202;9.876;2023-04-07T13:20:11;12.07;;;10.85;;
19675;SDS011;39539;52.202;9.876;2023-04-07T13:22:37;11.60;;;10.60;;
19675;SDS011;39539;52.202;9.876;2023-04-07T13:25:02;10.85;;;9.95;;
19675;SDS011;39539;52.202;9.876;2023-04-07T13:27:28;11.32;;;10.00;;
19675;SDS011;39539;52.202;9.876;2023-04-07T13:29:54;10.82;;;9.75;;
19675;SDS011;39539;52.202;9.876;2023-04-07T13:32:19;10.43;;;9.63;;
19675;SDS011;39539;52.202;9.876;2023-04-07T13:34:45;10.68;;;9.68;;
19675;SDS011;39539;52.202;9.876;2023-04-07T13:37:10;11.32;;;8.80;;
19675;SDS011;39539;52.202;9.876;2023-04-07T13:39:36;10.63;;;9.65;;
19675;SDS011;39539;52.202;9.876;2023-04-07T13:42:01;10.63;;;8.98;;
19675;SDS011;39539;52.202;9.876;2023-04-07T13:44:27;9.20;;;8.27;;
19675;SDS011;39539;52.202;9.876;2023-04-07T13:46:53;9.77;;;8.98;;
19675;SDS011;39539;52.202;9.876;2023-04-07T13:49:19;10.38;;;9.50;;
19675;SDS011;39539;52.202;9.876;2023-04-07T13:51:46;9.70;;;8.90;;
19675;SDS011;39539;52.202;9.876;2023-04-07T13:54:11;9.45;;;8.70;;
19675;SDS011;39539;52.202;9.876;2023-04-07T13:56:37;8.90;;;8.20;;
19675;SDS011;39539;52.202;9.876;2023-04-07T13:59:05;9.35;;;8.55;;
19675;SDS011;39539;52.202;9.876;2023-04-07T14:01:32;8.63;;;7.93;;
19675;SDS011;39539;52.202;9.876;2023-04-07T14:03:59;9.10;;;8.40;;
19675;SDS011;39539;52.202;9.876;2023-04-07T14:06:25;8.70;;;7.82;;
19675;SDS011;39539;52.202;9.876;2023-04-07T14:08:51;8.27;;;7.68;;
19675;SDS011;39539;52.202;9.876;2023-04-07T14:11:20;8.73;;;7.93;;
19675;SDS011;39539;52.202;9.876;2023-04-07T14:13:46;8.32;;;7.63;;
19675;SDS011;39539;52.202;9.876;2023-04-07T14:16:12;8.30;;;7.50;;
19675;SDS011;39539;52.202;9.876;2023-04-07T14:18:38;7.50;;;6.90;;
19675;SDS011;39539;52.202;9.876;2023-04-07T14:21:04;8.38;;;7.68;;
19675;SDS011;39539;52.202;9.876;2023-04-07T14:23:30;8.63;;;7.90;;
19675;SDS011;39539;52.202;9.876;2023-04-07T14:25:58;7.65;;;7.05;;
19675;SDS011;39539;52.202;9.876;2023-04-07T14:28:24;7.63;;;6.95;;
19675;SDS011;39539;52.202;9.876;2023-04-07T14:30:51;7.90;;;7.30;;
19675;SDS011;39539;52.202;9.876;2023-04-07T14:33:16;7.70;;;7.10;;
19675;SDS011;39539;52.202;9.876;2023-04-07T14:35:42;7.53;;;6.93;;
19675;SDS011;39539;52.202;9.876;2023-04-07T14:38:08;8.18;;;7.43;;
19675;SDS011;39539;52.202;9.876;2023-04-07T14:40:33;7.90;;;7.20;;
19675;SDS011;39539;52.202;9.876;2023-04-07T14:42:59;7.07;;;6.47;;
19675;SDS011;39539;52.202;9.876;2023-04-07T14:45:25;7.80;;;7.20;;
19675;SDS011;39539;52.202;9.876;2023-04-07T14:47:51;7.38;;;6.80;;
19675;SDS011;39539;52.202;9.876;2023-04-07T14:50:16;7.82;;;7.13;;